ADDS TAF Board (Experimental) INFO

IDs: Format: Expanded Condensed

Updated at: 1155 UTC 25 Oct 2014

KDFW - Dallas-Ft Worth Intl, TX, US

Issued at 1120 UTC 25 Oct 2014
Time1153Z25/12Z25/13Z25/14Z25/15Z25/16Z25/17Z25/18Z25/19Z25/20Z25/21Z25/22Z25/23Z26/00Z
TypeOBSPRVLPRVLPRVLPRVLPRVLPRVLPRVLPRVLPRVLPRVLPRVLPRVLPRVL
VIS10>6>6>6>6>6>6>6>6>6>6>6>6>6
CIG----------------------------
CoverCLRSKCSKCSKCSKCSKCSKCSKCSKCSKCSKCSKCSKCSKC
FltCat--VFRVFRVFRVFRVFRVFRVFRVFRVFRVFRVFRVFRVFR
WX----------------------------
WDir170200200200200200200200200200200200200200
WSpd88888888888888
WGst----------------------------
R13/31
XWnd-5-7-7-7-7-7-7-7-7-7-7-7-7-7
HWnd73333333333333
R17/35
XWnd1-3-3-3-3-3-3-3-3-3-3-3-3-3
HWnd88888888888888
R18/36
XWnd1-3-3-3-3-3-3-3-3-3-3-3-3-3
HWnd88888888888888
Raw TAF
KDFW 251120Z 2512/2618 20008KT P6SM SKC

Raw METAR
KDFW 251153Z 17008KT 10SM CLR 19/14 A3011 RMK AO2 SLP187 T01890144 10206 20183 53005
KDFW 251053Z 17008KT 10SM CLR 18/14 A3010 RMK AO2 SLP185 T01830144

TAF Board Legend

Hazard VFR MVFR IFR LIFR
Visibility (sm) >5 3≤X≤5 1≤X<3 <1
Ceiling (100 ft) >30 10≤X≤30 5≤X<10 <5
Wind Speed (kt) <10 10≤X<20 20≤X<30 ≥30
Wind Gust (kt) <15 15≤X<25 25≤X<35 ≥35
Weather No Wx Reported VCTS,-TS,-FZRA TS,FZRA +TS,+FZRA


Page loaded:  11:55 UTC  |   04:55 AM Pacific  |   05:55 AM Mountain  |   06:55 AM Central  |   07:55 AM Eastern

 

ADVISORIES

FORECASTS

FORECASTS

OBSERVATIONS

USER TOOLS

ABOUT US